Station History


Daily Summary for March 20, 2012 Units:  English    Metric   Both
« Previous Day
Next Day »
Daily Weekly Monthly Yearly Custom
  High: Low: Average:
Temperature: 69.2 °F 36.8 °F 51.7 °F
Dew Point: 45.0 °F 34.3 °F 39.6 °F
Humidity: 92% 37% 67%
Wind Speed: 5.8mph 0.0mph 2.1mph
Wind Gust: 5.8mph - -
Wind- - SW
Pressure: 30.22 in 30.10 in -
Precipitation: 0.00 in    
Historical Graphs
 
 
Tabular Data for March 20, 2012
Time Temperature Dew Point Pressure Wind Wind Speed Wind Gust Humidity Rainfall Rate (Hourly)
00:01 44.2 °F 38.4 °F 30.10 in Calm     80% 0.00 in
00:06 44.1 °F 38.3 °F 30.10 in Calm     80% 0.00 in
00:17 43.9 °F 38.1 °F 30.10 in Calm     80% 0.00 in
00:22 43.8 °F 38.0 °F 30.10 in Calm     80% 0.00 in
00:27 43.7 °F 37.9 °F 30.10 in Calm     80% 0.00 in
00:33 43.7 °F 37.9 °F 30.10 in Calm     80% 0.00 in
00:38 43.6 °F 37.8 °F 30.11 in Calm     80% 0.00 in
00:43 43.6 °F 37.5 °F 30.10 in Calm     79% 0.00 in
00:48 43.6 °F 37.5 °F 30.11 in Calm     79% 0.00 in
00:53 43.4 °F 37.6 °F 30.11 in Calm     80% 0.00 in
00:58 43.2 °F 37.4 °F 30.11 in Calm     80% 0.00 in
01:03 43.0 °F 37.6 °F 30.11 in Calm     81% 0.00 in
01:08 42.9 °F 37.5 °F 30.11 in Calm     81% 0.00 in
01:13 42.7 °F 37.3 °F 30.12 in Calm     81% 0.00 in
01:18 42.4 °F 37.3 °F 30.12 in Calm     82% 0.00 in
01:23 42.2 °F 37.1 °F 30.12 in Calm     82% 0.00 in
01:28 41.9 °F 36.8 °F 30.12 in Calm     82% 0.00 in
01:33 41.5 °F 36.4 °F 30.12 in Calm     82% 0.00 in
01:38 41.1 °F 36.3 °F 30.13 in Calm     83% 0.00 in
01:43 40.8 °F 36.3 °F 30.13 in Calm     84% 0.00 in
01:48 40.6 °F 36.1 °F 30.13 in Calm     84% 0.00 in
01:53 40.5 °F 36.6 °F 30.13 in Calm     86% 0.00 in
01:58 40.3 °F 36.4 °F 30.13 in Calm     86% 0.00 in
02:03 40.2 °F 36.6 °F 30.13 in Calm     87% 0.00 in
02:08 40.1 °F 36.5 °F 30.13 in Calm     87% 0.00 in
02:14 40.3 °F 36.7 °F 30.13 in Calm     87% 0.00 in
02:19 40.4 °F 36.8 °F 30.13 in Calm     87% 0.00 in
02:24 40.4 °F 36.5 °F 30.13 in Calm     86% 0.00 in
02:29 40.3 °F 36.4 °F 30.13 in Calm     86% 0.00 in
02:34 40.2 °F 36.3 °F 30.13 in Calm     86% 0.00 in
02:39 40.3 °F 36.4 °F 30.12 in Calm     86% 0.00 in
02:44 40.2 °F 36.1 °F 30.12 in Calm     85% 0.00 in
02:49 40.1 °F 36.0 °F 30.12 in Calm     85% 0.00 in
02:54 39.9 °F 35.8 °F 30.13 in Calm     85% 0.00 in
03:00 39.8 °F 35.7 °F 30.12 in Calm     85% 0.00 in
03:05 39.6 °F 35.5 °F 30.12 in Calm     85% 0.00 in
03:10 39.5 °F 35.7 °F 30.12 in Calm     86% 0.00 in
03:16 39.2 °F 35.4 °F 30.12 in Calm     86% 0.00 in
03:22 39.1 °F 35.6 °F 30.12 in Calm     87% 0.00 in
03:27 38.9 °F 35.4 °F 30.13 in Calm     87% 0.00 in
03:34 38.6 °F 35.1 °F 30.13 in Calm     87% 0.00 in
03:39 38.4 °F 34.9 °F 30.13 in Calm     87% 0.00 in
03:44 38.3 °F 34.8 °F 30.13 in Calm     87% 0.00 in
03:49 38.1 °F 34.9 °F 30.13 in Calm     88% 0.00 in
03:54 38.0 °F 34.8 °F 30.13 in Calm     88% 0.00 in
04:00 38.0 °F 35.3 °F 30.13 in Calm     90% 0.00 in
04:05 38.2 °F 35.5 °F 30.13 in Calm     90% 0.00 in
04:10 38.4 °F 35.7 °F 30.13 in Calm     90% 0.00 in
04:16 38.6 °F 35.9 °F 30.13 in Calm     90% 0.00 in
04:21 38.7 °F 35.7 °F 30.13 in Calm     89% 0.00 in
04:27 38.6 °F 35.4 °F 30.13 in Calm     88% 0.00 in
04:33 38.4 °F 35.2 °F 30.13 in Calm     88% 0.00 in
04:40 38.1 °F 34.9 °F 30.13 in Calm     88% 0.00 in
04:46 38.0 °F 34.8 °F 30.13 in Calm     88% 0.00 in
04:51 38.0 °F 35.0 °F 30.13 in Calm     89% 0.00 in
04:56 38.0 °F 35.0 °F 30.13 in Calm     89% 0.00 in
05:02 38.0 °F 35.0 °F 30.13 in Calm     89% 0.00 in
05:07 38.1 °F 35.1 °F 30.13 in Calm     89% 0.00 in
05:12 38.0 °F 35.0 °F 30.14 in Calm     89% 0.00 in
05:17 37.9 °F 34.9 °F 30.14 in Calm     89% 0.00 in
05:22 37.7 °F 34.8 °F 30.14 in Calm     89% 0.00 in
05:28 37.5 °F 34.6 °F 30.14 in Calm     89% 0.00 in
05:33 37.5 °F 34.8 °F 30.15 in Calm     90% 0.00 in
05:40 37.4 °F 34.7 °F 30.15 in Calm     90% 0.00 in
05:45 37.3 °F 34.6 °F 30.16 in Calm     90% 0.00 in
05:50 37.2 °F 34.5 °F 30.16 in Calm     90% 0.00 in
05:55 37.1 °F 34.4 °F 30.16 in Calm     90% 0.00 in
06:01 37.0 °F 34.3 °F 30.16 in Calm     90% 0.00 in
06:06 36.9 °F 34.5 °F 30.16 in Calm     91% 0.00 in
06:11 36.8 °F 34.4 °F 30.16 in Calm     91% 0.00 in
06:16 37.1 °F 35.0 °F 30.16 in Calm     92% 0.00 in
06:21 37.2 °F 34.8 °F 30.17 in Calm     91% 0.00 in
06:26 37.1 °F 34.7 °F 30.17 in Calm     91% 0.00 in
06:33 37.1 °F 34.7 °F 30.17 in Calm     91% 0.00 in
06:38 36.9 °F 34.5 °F 30.17 in Calm     91% 0.00 in
06:43 37.1 °F 35.0 °F 30.17 in Calm     92% 0.00 in
06:49 37.2 °F 35.1 °F 30.17 in Calm     92% 0.00 in
06:54 37.4 °F 35.3 °F 30.17 in Calm     92% 0.00 in
06:59 37.5 °F 35.4 °F 30.17 in Calm     92% 0.00 in
07:04 37.5 °F 35.1 °F 30.17 in Calm     91% 0.00 in
07:11 37.5 °F 35.1 °F 30.17 in Calm     91% 0.00 in
07:16 37.6 °F 35.2 °F 30.17 in Calm     91% 0.00 in
07:21 37.6 °F 35.2 °F 30.17 in Calm     91% 0.00 in
07:26 37.8 °F 35.4 °F 30.17 in Calm     91% 0.00 in
07:32 37.9 °F 35.5 °F 30.18 in Calm     91% 0.00 in
07:37 38.3 °F 35.9 °F 30.18 in Calm     91% 0.00 in
07:43 38.7 °F 36.3 °F 30.18 in Calm     91% 0.00 in
07:48 39.3 °F 36.9 °F 30.18 in Calm     91% 0.00 in
07:53 39.8 °F 37.1 °F 30.18 in Calm     90% 0.00 in
07:58 40.3 °F 37.3 °F 30.18 in Calm     89% 0.00 in
08:03 40.8 °F 37.5 °F 30.18 in Calm     88% 0.00 in
08:09 41.2 °F 37.6 °F 30.18 in Calm     87% 0.00 in
08:14 41.7 °F 37.8 °F 30.18 in Calm     86% 0.00 in
08:19 42.4 °F 38.2 °F 30.18 in Calm     85% 0.00 in
08:25 43.2 °F 38.1 °F 30.18 in Calm     82% 0.00 in
08:30 44.0 °F 38.2 °F 30.18 in Calm   0.1 mph 80% 0.00 in
08:36 44.9 °F 38.5 °F 30.19 in Calm     78% 0.00 in
08:43 45.9 °F 38.4 °F 30.19 in Calm     75% 0.00 in
08:48 46.7 °F 38.1 °F 30.19 in East 1.1 mph   72% 0.00 in
08:53 47.4 °F 38.5 °F 30.19 in East 1.0 mph 1.0 mph 71% 0.00 in
08:58 48.0 °F 38.7 °F 30.19 in Calm   0.4 mph 70% 0.00 in
09:03 48.5 °F 38.8 °F 30.19 in Calm     69% 0.00 in
09:08 48.9 °F 38.8 °F 30.19 in Calm     68% 0.00 in
09:14 49.3 °F 38.0 °F 30.19 in Calm     65% 0.00 in
09:19 49.6 °F 37.9 °F 30.20 in Calm     64% 0.00 in
09:25 49.7 °F 36.8 °F 30.20 in Calm     61% 0.00 in
09:30 50.0 °F 37.5 °F 30.20 in Calm     62% 0.00 in
09:36 50.5 °F 37.5 °F 30.20 in ENE 1.1 mph   61% 0.00 in
09:41 50.9 °F 37.1 °F 30.20 in Calm     59% 0.00 in
09:46 50.9 °F 36.6 °F 30.20 in Calm     58% 0.00 in
09:51 51.2 °F 36.5 °F 30.20 in WSW 1.1 mph 1.1 mph 57% 0.00 in
09:56 51.4 °F 36.7 °F 30.20 in South 1.1 mph   57% 0.00 in
10:01 51.7 °F 36.5 °F 30.21 in WSW 1.1 mph 1.1 mph 56% 0.00 in
10:06 51.9 °F 36.2 °F 30.21 in Calm     55% 0.00 in
10:11 51.9 °F 36.2 °F 30.21 in SW 1.0 mph   55% 0.00 in
10:16 52.1 °F 36.4 °F 30.21 in Calm     55% 0.00 in
10:21 52.4 °F 37.6 °F 30.21 in NE 1.1 mph 1.1 mph 57% 0.00 in
10:26 53.0 °F 37.3 °F 30.21 in WSW 1.0 mph 1.0 mph 55% 0.00 in
10:32 53.3 °F 37.1 °F 30.21 in SW 1.0 mph 1.0 mph 54% 0.00 in
10:37 53.6 °F 37.8 °F 30.21 in West 1.1 mph 1.1 mph 55% 0.00 in
10:42 53.8 °F 37.5 °F 30.21 in NNW 3.5 mph 3.5 mph 54% 0.00 in
10:47 54.1 °F 38.3 °F 30.21 in ENE 1.1 mph 1.1 mph 55% 0.00 in
10:52 54.4 °F 38.6 °F 30.22 in NW 2.3 mph 2.3 mph 55% 0.00 in
10:57 54.6 °F 37.8 °F 30.21 in Calm     53% 0.00 in
11:02 54.9 °F 38.1 °F 30.21 in WSW 2.3 mph 2.3 mph 53% 0.00 in
11:07 55.3 °F 38.0 °F 30.21 in NNW 2.3 mph 2.3 mph 52% 0.00 in
11:12 55.5 °F 37.7 °F 30.21 in NW 2.3 mph 2.3 mph 51% 0.00 in
11:17 55.6 °F 37.2 °F 30.21 in NNE 1.1 mph   50% 0.00 in
11:22 55.5 °F 38.1 °F 30.21 in East 3.5 mph 3.5 mph 52% 0.00 in
11:27 56.2 °F 38.3 °F 30.21 in NW 2.3 mph 2.3 mph 51% 0.00 in
11:32 57.0 °F 38.0 °F 30.21 in WSW 2.3 mph 2.3 mph 49% 0.00 in
11:37 57.5 °F 39.0 °F 30.21 in NW 1.1 mph 1.1 mph 50% 0.00 in
11:42 57.8 °F 38.8 °F 30.21 in NE 1.1 mph 1.1 mph 49% 0.00 in
11:47 58.0 °F 37.9 °F 30.21 in WSW 3.5 mph 3.5 mph 47% 0.00 in
11:52 58.0 °F 37.3 °F 30.20 in NE 2.3 mph 2.3 mph 46% 0.00 in
11:57 57.8 °F 38.2 °F 30.20 in ENE 2.3 mph 2.3 mph 48% 0.00 in
12:02 58.3 °F 39.7 °F 30.20 in East 1.1 mph 1.1 mph 50% 0.00 in
12:07 58.9 °F 38.7 °F 30.19 in West 2.3 mph 2.3 mph 47% 0.00 in
12:12 59.7 °F 40.0 °F 30.19 in SW 1.1 mph   48% 0.00 in
12:17 60.3 °F 38.3 °F 30.19 in West 1.0 mph   44% 0.00 in
12:22 60.7 °F 37.5 °F 30.19 in WSW 1.1 mph 1.1 mph 42% 0.00 in
12:27 61.4 °F 39.3 °F 30.19 in SE 1.1 mph 1.1 mph 44% 0.00 in
12:32 61.2 °F 37.3 °F 30.19 in ENE 1.1 mph 1.1 mph 41% 0.00 in
12:37 61.6 °F 37.7 °F 30.19 in SSW 2.3 mph 2.3 mph 41% 0.00 in
12:42 61.4 °F 36.8 °F 30.18 in North 3.5 mph 3.5 mph 40% 0.00 in
12:47 61.2 °F 37.9 °F 30.18 in WSW 1.0 mph 1.0 mph 42% 0.00 in
12:52 61.4 °F 38.7 °F 30.17 in SW 1.1 mph 1.1 mph 43% 0.00 in
12:57 62.3 °F 40.1 °F 30.17 in East 2.0 mph 2.0 mph 44% 0.00 in
13:02 62.8 °F 39.4 °F 30.17 in SE 1.1 mph 1.1 mph 42% 0.00 in
13:07 63.1 °F 39.6 °F 30.17 in NW 3.5 mph 3.5 mph 42% 0.00 in
13:12 62.9 °F 40.6 °F 30.17 in NNW 3.5 mph 3.5 mph 44% 0.00 in
13:17 63.0 °F 38.3 °F 30.17 in NNW 4.6 mph 4.6 mph 40% 0.00 in
13:22 62.5 °F 39.1 °F 30.17 in North 2.3 mph 2.3 mph 42% 0.00 in
13:27 62.3 °F 39.5 °F 30.17 in North 3.0 mph 3.0 mph 43% 0.00 in
13:32 62.6 °F 39.2 °F 30.17 in NW 2.3 mph 2.3 mph 42% 0.00 in
13:38 63.1 °F 39.6 °F 30.17 in North 5.0 mph 5.0 mph 42% 0.00 in
13:43 63.0 °F 39.5 °F 30.17 in West 2.3 mph 2.3 mph 42% 0.00 in
13:48 63.3 °F 39.8 °F 30.17 in NNW 4.6 mph 4.6 mph 42% 0.00 in
13:53 63.5 °F 41.2 °F 30.17 in WSW 1.1 mph 1.1 mph 44% 0.00 in
13:58 63.8 °F 40.9 °F 30.17 in WSW 2.3 mph 2.3 mph 43% 0.00 in
14:03 64.2 °F 40.0 °F 30.16 in North 3.5 mph 3.5 mph 41% 0.00 in
14:08 64.5 °F 40.3 °F 30.16 in SW 2.3 mph 2.3 mph 41% 0.00 in
14:13 64.8 °F 41.2 °F 30.16 in NNE 3.5 mph 3.5 mph 42% 0.00 in
14:18 64.8 °F 41.8 °F 30.16 in SSE 3.5 mph 3.5 mph 43% 0.00 in
14:23 65.0 °F 40.1 °F 30.16 in WNW 3.0 mph 3.0 mph 40% 0.00 in
14:28 65.3 °F 39.7 °F 30.16 in SE 1.1 mph 1.1 mph 39% 0.00 in
14:33 65.6 °F 40.0 °F 30.16 in WNW 1.1 mph 1.1 mph 39% 0.00 in
14:38 66.0 °F 41.0 °F 30.16 in West 1.1 mph 1.1 mph 40% 0.00 in
14:43 66.0 °F 39.7 °F 30.16 in WNW 3.5 mph 3.5 mph 38% 0.00 in
14:48 65.7 °F 42.6 °F 30.16 in NNW 4.6 mph 4.6 mph 43% 0.00 in
14:53 65.6 °F 41.9 °F 30.16 in WNW 3.0 mph 3.0 mph 42% 0.00 in
14:58 65.7 °F 42.0 °F 30.16 in Calm   0.2 mph 42% 0.00 in
15:03 66.1 °F 41.7 °F 30.16 in West 3.5 mph 3.5 mph 41% 0.00 in
15:08 65.7 °F 40.7 °F 30.15 in North 2.3 mph 2.3 mph 40% 0.00 in
15:13 65.8 °F 42.7 °F 30.15 in NNE 3.5 mph 3.5 mph 43% 0.00 in
15:18 66.0 °F 41.6 °F 30.15 in NNE 3.5 mph 3.5 mph 41% 0.00 in
15:23 66.0 °F 42.2 °F 30.15 in North 2.3 mph 2.3 mph 42% 0.00 in
15:28 65.9 °F 43.4 °F 30.15 in NE 2.3 mph 2.3 mph 44% 0.00 in
15:33 66.4 °F 43.2 °F 30.15 in ENE 1.1 mph   43% 0.00 in
15:38 66.4 °F 42.0 °F 30.14 in ENE 2.3 mph 2.3 mph 41% 0.00 in
15:43 66.5 °F 42.7 °F 30.14 in North 1.1 mph   42% 0.00 in
15:48 66.7 °F 44.1 °F 30.14 in NNE 1.1 mph 1.1 mph 44% 0.00 in
15:53 66.7 °F 42.2 °F 30.14 in West 3.5 mph 3.5 mph 41% 0.00 in
15:58 66.9 °F 43.7 °F 30.14 in WNW 4.6 mph 4.6 mph 43% 0.00 in
16:03 67.1 °F 42.6 °F 30.14 in NW 1.1 mph   41% 0.00 in
16:08 67.4 °F 42.2 °F 30.13 in NNE 5.8 mph 5.8 mph 40% 0.00 in
16:13 66.7 °F 43.5 °F 30.13 in West 2.0 mph 2.0 mph 43% 0.00 in
16:18 66.7 °F 42.2 °F 30.13 in SSW 2.3 mph 2.3 mph 41% 0.00 in
16:23 66.9 °F 42.4 °F 30.13 in North 2.3 mph 2.3 mph 41% 0.00 in
16:28 66.9 °F 42.4 °F 30.13 in North 4.0 mph 4.0 mph 41% 0.00 in
16:33 67.0 °F 41.9 °F 30.13 in SSW 1.1 mph   40% 0.00 in
16:38 67.2 °F 43.3 °F 30.12 in North 2.0 mph 2.0 mph 42% 0.00 in
16:43 67.2 °F 42.0 °F 30.12 in NW 2.3 mph 2.3 mph 40% 0.00 in
16:48 67.7 °F 42.5 °F 30.12 in WNW 1.1 mph 1.1 mph 40% 0.00 in
16:53 68.2 °F 42.3 °F 30.12 in South 2.3 mph 2.3 mph 39% 0.00 in
16:59 69.0 °F 41.6 °F 30.12 in SSW 1.1 mph 1.1 mph 37% 0.00 in
17:04 69.2 °F 42.5 °F 30.12 in WNW 1.1 mph   38% 0.00 in
17:09 69.2 °F 42.5 °F 30.12 in SE 1.1 mph   38% 0.00 in
17:14 68.6 °F 42.0 °F 30.12 in SSW 1.1 mph   38% 0.00 in
17:19 68.7 °F 42.1 °F 30.12 in Calm   0.1 mph 38% 0.00 in
17:24 68.5 °F 42.6 °F 30.12 in SSW 3.5 mph 3.5 mph 39% 0.00 in
17:29 68.2 °F 42.9 °F 30.12 in NW 2.3 mph 2.3 mph 40% 0.00 in
17:34 68.2 °F 42.9 °F 30.12 in West 2.3 mph 2.3 mph 40% 0.00 in
17:39 67.7 °F 42.5 °F 30.12 in West 2.0 mph 2.0 mph 40% 0.00 in
17:44 66.8 °F 42.3 °F 30.12 in West 3.5 mph 3.5 mph 41% 0.00 in
17:49 65.9 °F 42.8 °F 30.12 in WSW 2.3 mph 2.3 mph 43% 0.00 in
17:54 65.3 °F 42.8 °F 30.12 in NW 1.1 mph 1.1 mph 44% 0.00 in
17:59 65.2 °F 42.7 °F 30.12 in Calm   0.3 mph 44% 0.00 in
18:04 65.4 °F 42.9 °F 30.12 in WSW 2.3 mph 2.3 mph 44% 0.00 in
18:09 64.9 °F 43.0 °F 30.12 in WNW 2.0 mph 2.0 mph 45% 0.00 in
18:14 64.0 °F 42.8 °F 30.12 in WNW 1.1 mph 1.2 mph 46% 0.00 in
18:19 63.4 °F 42.8 °F 30.12 in NW 2.3 mph   47% 0.00 in
18:24 63.0 °F 42.4 °F 30.12 in NW 2.3 mph 2.3 mph 47% 0.00 in
18:29 62.6 °F 43.2 °F 30.12 in NNW 2.0 mph 2.0 mph 49% 0.00 in
18:34 62.2 °F 42.8 °F 30.12 in WNW 1.1 mph 1.1 mph 49% 0.00 in
18:39 61.8 °F 41.9 °F 30.12 in NW 1.1 mph 1.1 mph 48% 0.00 in
18:44 61.6 °F 42.2 °F 30.12 in WNW 1.1 mph   49% 0.00 in
18:49 61.4 °F 42.6 °F 30.12 in NNW 1.1 mph 1.1 mph 50% 0.00 in
18:54 61.1 °F 42.3 °F 30.12 in NNW 1.1 mph 1.1 mph 50% 0.00 in
18:59 60.7 °F 41.9 °F 30.12 in NNW 1.1 mph 1.1 mph 50% 0.00 in
19:13 59.8 °F 43.1 °F 30.12 in NNW 1.1 mph 1.1 mph 54% 0.00 in
19:18 59.5 °F 42.8 °F 30.12 in Calm     54% 0.00 in
19:24 59.1 °F 42.9 °F 30.13 in WNW 1.1 mph   55% 0.00 in
19:29 58.7 °F 43.5 °F 30.13 in Calm     57% 0.00 in
19:34 58.4 °F 43.2 °F 30.13 in Calm     57% 0.00 in
19:39 58.0 °F 43.3 °F 30.13 in Calm     58% 0.00 in
19:44 57.6 °F 42.9 °F 30.13 in Calm     58% 0.00 in
19:49 57.3 °F 43.1 °F 30.13 in NW 1.1 mph 1.1 mph 59% 0.00 in
19:54 57.2 °F 43.9 °F 30.13 in Calm     61% 0.00 in
19:59 57.0 °F 44.1 °F 30.14 in Calm     62% 0.00 in
20:04 56.7 °F 44.2 °F 30.14 in Calm     63% 0.00 in
20:09 56.5 °F 44.5 °F 30.14 in Calm     64% 0.00 in
20:14 56.3 °F 44.3 °F 30.14 in Calm     64% 0.00 in
20:19 56.1 °F 44.5 °F 30.14 in Calm     65% 0.00 in
20:24 55.7 °F 44.5 °F 30.14 in Calm     66% 0.00 in
20:26 55.6 °F 44.8 °F 30.15 in Calm     67% 0.00 in
20:31 55.3 °F 44.9 °F 30.15 in Calm     68% 0.00 in
20:36 55.0 °F 45.0 °F 30.15 in Calm     69% 0.00 in
20:41 54.6 °F 45.0 °F 30.15 in Calm     70% 0.00 in
20:46 54.2 °F 45.0 °F 30.15 in Calm     71% 0.00 in
20:51 53.8 °F 44.6 °F 30.15 in Calm     71% 0.00 in
20:56 53.5 °F 44.7 °F 30.15 in Calm     72% 0.00 in
21:00 53.3 °F 44.5 °F 30.15 in Calm     72% 0.00 in
21:01 53.3 °F 44.9 °F 30.15 in Calm     73% 0.00 in
21:06 53.1 °F 44.7 °F 30.15 in Calm     73% 0.00 in
21:11 52.8 °F 44.7 °F 30.15 in Calm     74% 0.00 in
21:16 52.6 °F 44.5 °F 30.15 in Calm     74% 0.00 in
21:21 52.3 °F 44.3 °F 30.16 in Calm     74% 0.00 in
21:26 52.0 °F 44.3 °F 30.16 in Calm     75% 0.00 in
21:31 51.8 °F 44.1 °F 30.16 in Calm     75% 0.00 in
21:36 51.5 °F 44.2 °F 30.16 in Calm     76% 0.00 in
21:41 51.1 °F 44.1 °F 30.16 in Calm     77% 0.00 in
21:46 50.9 °F 44.3 °F 30.16 in Calm     78% 0.00 in
21:51 50.7 °F 44.4 °F 30.17 in Calm     79% 0.00 in
21:56 50.6 °F 44.3 °F 30.17 in Calm     79% 0.00 in
22:01 50.4 °F 44.1 °F 30.17 in Calm     79% 0.00 in
22:06 50.1 °F 43.8 °F 30.17 in Calm     79% 0.00 in
22:11 49.9 °F 44.0 °F 30.17 in Calm     80% 0.00 in
22:16 49.8 °F 44.2 °F 30.17 in Calm     81% 0.00 in
22:21 49.7 °F 44.4 °F 30.17 in Calm     82% 0.00 in
22:26 49.6 °F 44.6 °F 30.17 in Calm     83% 0.00 in
22:31 49.5 °F 44.6 °F 30.17 in Calm     83% 0.00 in
22:36 49.5 °F 44.6 °F 30.17 in Calm     83% 0.00 in
22:41 49.4 °F 44.1 °F 30.17 in Calm     82% 0.00 in
22:46 49.3 °F 44.4 °F 30.18 in Calm     83% 0.00 in
22:51 49.2 °F 44.3 °F 30.18 in Calm     83% 0.00 in
22:56 49.1 °F 44.2 °F 30.18 in Calm     83% 0.00 in
23:01 49.0 °F 44.4 °F 30.18 in Calm     84% 0.00 in
23:06 48.9 °F 44.3 °F 30.18 in Calm     84% 0.00 in
23:11 48.7 °F 43.8 °F 30.18 in Calm     83% 0.00 in
23:16 48.4 °F 43.8 °F 30.18 in Calm     84% 0.00 in
23:21 48.0 °F 43.4 °F 30.18 in Calm     84% 0.00 in
23:26 47.7 °F 43.1 °F 30.17 in Calm     84% 0.00 in
23:31 47.4 °F 42.8 °F 30.17 in Calm     84% 0.00 in
23:36 47.2 °F 42.9 °F 30.17 in Calm     85% 0.00 in
23:41 47.3 °F 43.6 °F 30.17 in Calm     87% 0.00 in
23:46 47.3 °F 43.6 °F 30.17 in Calm     87% 0.00 in
23:51 47.3 °F 43.9 °F 30.17 in Calm     88% 0.00 in
23:56 47.2 °F 43.5 °F 30.16 in Calm     87% 0.00 in
Compliments of Weather Underground